createdAt,value
2022-11-25T00:03:39.302Z,40.75
2022-11-25T00:08:45.126Z,51.20
2022-11-25T00:13:52.834Z,32.40
2022-11-25T00:18:59.021Z,17.90
2022-11-25T00:24:05.280Z,18.00
2022-11-25T00:29:14.692Z,16.65
2022-11-25T00:34:19.794Z,14.88
2022-11-25T00:39:24.913Z,16.92
2022-11-25T00:44:40.701Z,17.73
2022-11-25T00:49:47.580Z,16.02
2022-11-25T00:54:52.905Z,13.45
2022-11-25T01:00:00.533Z,12.77
2022-11-25T01:05:05.701Z,13.68
2022-11-25T01:10:12.058Z,17.00
2022-11-25T01:15:19.822Z,14.10
2022-11-25T01:20:25.037Z,11.93
2022-11-25T01:25:30.035Z,16.05
2022-11-25T01:30:41.186Z,15.23
2022-11-25T01:35:46.451Z,17.23
2022-11-25T01:40:51.540Z,15.60
2022-11-25T01:46:01.222Z,15.40
2022-11-25T01:51:06.524Z,15.05
2022-11-25T01:56:11.531Z,15.60
2022-11-25T02:01:21.962Z,22.05
2022-11-25T02:06:32.293Z,22.88
2022-11-25T02:11:39.158Z,28.73
2022-11-25T02:16:46.908Z,30.85
2022-11-25T02:21:55.583Z,26.45
2022-11-25T02:32:08.809Z,20.83
2022-11-25T02:37:13.949Z,34.92
2022-11-25T02:42:23.084Z,30.63
2022-11-25T02:47:28.140Z,14.50
2022-11-25T02:52:33.239Z,16.63
2022-11-25T02:57:41.218Z,20.35
2022-11-25T03:02:46.275Z,24.55
2022-11-25T03:07:51.806Z,16.25
2022-11-25T03:12:59.670Z,12.57
2022-11-25T03:18:06.659Z,12.68
2022-11-25T03:23:11.637Z,22.13
2022-11-25T03:28:19.353Z,35.53
2022-11-25T03:33:24.304Z,25.05
2022-11-25T03:38:29.626Z,22.40
2022-11-25T03:43:37.208Z,23.25
2022-11-25T03:48:42.256Z,27.05
2022-11-25T03:53:47.318Z,31.02
2022-11-25T03:58:54.989Z,19.60
2022-11-25T04:04:00.263Z,19.02
2022-11-25T04:09:05.260Z,14.05
2022-11-25T04:14:12.879Z,15.70
2022-11-25T04:19:17.966Z,16.00
2022-11-25T04:24:23.160Z,14.05
2022-11-25T04:29:30.749Z,13.63
2022-11-25T04:34:36.015Z,12.57
2022-11-25T04:39:41.257Z,13.00
2022-11-25T04:45:07.591Z,13.20
2022-11-25T04:50:17.898Z,14.65
2022-11-25T04:55:22.963Z,13.75
2022-11-25T05:00:30.671Z,14.50
2022-11-25T05:05:35.740Z,13.48
2022-11-25T05:10:40.765Z,20.77
2022-11-25T05:15:48.427Z,17.77
2022-11-25T05:20:53.402Z,17.08
2022-11-25T05:26:02.640Z,25.77
2022-11-25T05:31:10.469Z,18.05
2022-11-25T05:36:15.550Z,17.05
2022-11-25T05:41:20.622Z,17.95
2022-11-25T05:46:28.365Z,15.48
2022-11-25T05:51:33.750Z,16.92
2022-11-25T05:56:39.047Z,20.83
2022-11-25T06:01:46.725Z,16.40
2022-11-25T06:06:51.805Z,18.77
2022-11-25T06:11:56.800Z,20.67
2022-11-25T06:17:04.641Z,20.73
2022-11-25T06:22:09.718Z,18.40
2022-11-25T06:27:14.666Z,20.25
2022-11-25T06:32:22.525Z,25.48
2022-11-25T06:37:27.574Z,17.77
2022-11-25T06:42:32.594Z,27.35
2022-11-25T06:47:40.246Z,23.85
2022-11-25T06:52:45.235Z,29.98
2022-11-25T06:57:53.290Z,28.38
2022-11-25T07:03:05.470Z,30.58
2022-11-25T07:08:10.770Z,26.65
2022-11-25T07:13:16.059Z,30.45
2022-11-25T07:18:23.974Z,27.88
2022-11-25T07:23:29.260Z,23.45
2022-11-25T07:28:34.370Z,30.10
2022-11-25T07:33:42.233Z,25.25
2022-11-25T07:38:47.600Z,30.30
2022-11-25T07:43:55.055Z,26.92
2022-11-25T07:49:04.542Z,28.73
2022-11-25T07:54:11.531Z,24.90
2022-11-25T07:59:18.199Z,26.02
2022-11-25T08:04:43.654Z,33.67
2022-11-25T08:20:56.849Z,23.83
2022-11-25T08:26:17.669Z,22.10
2022-11-25T08:31:42.555Z,26.23
2022-11-25T08:36:52.013Z,26.33
2022-11-25T09:16:56.916Z,23.40
2022-11-25T10:31:01.336Z,22.85
2022-11-25T10:42:25.527Z,24.27
2022-11-25T10:53:02.386Z,22.08
2022-11-25T10:58:27.197Z,26.15
2022-11-25T11:03:32.803Z,22.60
2022-11-25T11:08:48.347Z,25.85
2022-11-25T11:14:05.192Z,23.73
2022-11-25T11:19:26.156Z,21.67
2022-11-25T11:24:36.148Z,24.20
2022-11-25T11:29:41.491Z,23.00
2022-11-25T11:35:01.548Z,24.85
2022-11-25T11:40:25.612Z,25.17
2022-11-25T11:45:41.956Z,25.25
2022-11-25T11:50:49.718Z,37.58
2022-11-25T11:56:33.799Z,26.15
2022-11-25T12:01:38.599Z,23.17
2022-11-25T12:06:46.350Z,23.45
2022-11-25T12:11:57.272Z,24.23
2022-11-25T12:17:05.268Z,20.42
2022-11-25T12:22:16.539Z,24.92
2022-11-25T12:27:26.586Z,19.95
2022-11-25T12:32:56.990Z,22.00
2022-11-25T12:38:07.326Z,48.60
2022-11-25T12:43:27.407Z,20.65
2022-11-25T12:48:32.667Z,17.23
2022-11-25T12:53:42.014Z,16.83
2022-11-25T12:58:58.431Z,28.50
2022-11-25T13:04:36.535Z,25.50
2022-11-25T13:09:53.491Z,15.88
2022-11-25T13:15:25.071Z,15.45
2022-11-25T13:20:45.951Z,20.67
2022-11-25T13:25:52.525Z,17.88
2022-11-25T13:31:21.337Z,21.58
2022-11-25T13:36:27.843Z,21.50
2022-11-25T13:41:51.374Z,23.80
2022-11-25T13:47:02.018Z,22.73
2022-11-25T13:52:24.150Z,23.38
2022-11-25T13:57:31.399Z,34.45
2022-11-25T14:02:50.261Z,62.90
2022-11-25T14:08:08.072Z,22.00
2022-11-25T14:13:31.251Z,18.27
2022-11-25T14:19:28.163Z,19.23
2022-11-25T14:24:22.452Z,18.67
2022-11-25T14:29:35.883Z,19.67
2022-11-25T14:35:24.673Z,20.38
2022-11-25T14:52:52.917Z,19.10
2022-11-25T15:57:18.886Z,38.00
2022-11-25T16:02:39.206Z,43.45
2022-11-25T16:08:02.269Z,44.58
2022-11-25T16:13:33.643Z,39.88
2022-11-25T16:18:41.379Z,38.28
2022-11-25T16:23:51.069Z,38.60
2022-11-25T16:29:00.681Z,41.83
2022-11-25T16:34:17.207Z,37.30
2022-11-25T16:39:22.705Z,36.75
2022-11-25T16:44:37.208Z,38.67
2022-11-25T16:49:42.414Z,44.00
2022-11-25T16:54:47.684Z,35.17
2022-11-25T16:59:58.902Z,37.45
2022-11-25T17:05:17.462Z,38.20
2022-11-25T17:10:23.371Z,40.30
2022-11-25T17:15:34.052Z,40.33
2022-11-25T17:20:39.230Z,43.65
2022-11-25T17:25:45.256Z,37.35
2022-11-25T17:30:53.036Z,35.95
2022-11-25T17:35:58.174Z,32.30
2022-11-25T17:41:03.243Z,38.55
2022-11-25T17:46:13.319Z,42.20
2022-11-25T17:51:18.411Z,38.83
2022-11-25T17:56:28.310Z,43.28
2022-11-25T18:01:36.173Z,43.03
2022-11-25T18:06:41.405Z,43.40
2022-11-25T18:11:48.307Z,41.63
2022-11-25T18:16:56.246Z,46.15
2022-11-25T18:22:03.012Z,40.03
2022-11-25T18:27:09.418Z,40.30
2022-11-25T18:32:17.077Z,43.97
2022-11-25T18:37:22.476Z,39.35
2022-11-25T18:42:30.097Z,45.75
2022-11-25T18:47:37.764Z,42.28
2022-11-25T18:52:42.718Z,39.75
2022-11-25T18:57:49.473Z,42.35
2022-11-25T19:02:57.333Z,36.65
2022-11-25T19:08:03.099Z,44.95
2022-11-25T19:13:11.162Z,49.08
2022-11-25T19:18:21.471Z,42.13
2022-11-25T19:23:29.032Z,42.10
2022-11-25T19:28:34.668Z,39.15
2022-11-25T19:33:44.547Z,32.92
2022-11-25T19:38:49.689Z,31.25
2022-11-25T19:43:57.097Z,31.25
2022-11-25T19:49:06.021Z,30.20
2022-11-25T19:59:17.973Z,24.27
2022-11-25T20:04:25.809Z,30.17
2022-11-25T20:09:31.500Z,26.65
2022-11-25T20:14:37.141Z,27.50
2022-11-25T20:19:45.237Z,30.55
2022-11-25T20:24:50.286Z,34.10
2022-11-25T20:29:55.363Z,34.03
2022-11-25T20:35:03.329Z,26.10
2022-11-25T20:40:17.096Z,35.00
2022-11-25T20:45:24.049Z,38.22
2022-11-25T20:50:32.409Z,44.10
2022-11-25T20:55:37.422Z,48.78
2022-11-25T21:00:42.607Z,46.53
2022-11-25T21:05:52.801Z,34.80
2022-11-25T21:10:59.277Z,29.35
2022-11-25T21:16:05.212Z,29.73
2022-11-25T21:21:19.510Z,31.88
2022-11-25T21:26:26.699Z,28.77
2022-11-25T21:31:31.773Z,21.60
2022-11-25T21:36:39.535Z,21.77
2022-11-25T21:41:44.609Z,55.80
2022-11-25T21:46:49.668Z,37.60
2022-11-25T21:51:57.342Z,23.15
2022-11-25T21:57:17.285Z,21.63
2022-11-25T22:02:24.289Z,27.27
2022-11-25T22:07:35.009Z,23.63
2022-11-25T22:12:41.667Z,17.73
2022-11-25T22:17:47.194Z,20.73
2022-11-25T22:22:54.825Z,21.88
2022-11-25T22:28:00.034Z,19.25
2022-11-25T22:33:05.879Z,15.65
2022-11-25T22:38:18.237Z,15.98
2022-11-25T22:43:25.245Z,19.98
2022-11-25T22:48:34.141Z,18.67
2022-11-25T22:53:41.835Z,13.95
2022-11-25T22:58:46.870Z,25.08
2022-11-25T23:03:52.135Z,15.82
2022-11-25T23:09:03.121Z,15.93
2022-11-25T23:14:08.239Z,13.95
2022-11-25T23:19:18.010Z,16.73
2022-11-25T23:24:25.766Z,21.05
2022-11-25T23:29:30.760Z,16.08
2022-11-25T23:34:36.465Z,14.95
2022-11-25T23:39:44.663Z,14.57
2022-11-25T23:44:49.854Z,16.35
2022-11-25T23:49:56.272Z,17.02
2022-11-25T23:55:03.975Z,16.38
